Nearby METAR Reports

 

KDWH - Houston/Dw Hooks, Texas, USA
Distance from station: WNW 3mi, 6km
Updated: 07/03/2020 10:53pm
Clear
Clear
 Wind from calm
Wind: Calm
Temperature: 77°F , 25°C
Dew Point: 70°F , 21°C
Humidity: 79%
Barometer: 29.95 inHg , 1014.2 hPa
Clouds: Clear
Visibility: 10 miles , 16 km
2020/07/04 03:53 KDWH 040353Z 00000KT 10SM CLR 25/21 A2995 RMK AO2 SLP140 T02500206
KIAH - Houston/Intnl, Texas, USA
Distance from station: ESE 9mi, 14km
Updated: 07/03/2020 11:53pm
Partly cloudy
Partly cloudy
 Wind from calm
Wind: Calm
Temperature: 73°F , 23°C
Dew Point: 72°F , 22°C
Humidity: 94%
Barometer: 29.96 inHg , 1014.6 hPa
Clouds: Partly cloudy
Visibility: 10 miles , 16 km
Cloud details: Partly cloudy 25000 ft
2020/07/04 04:53 KIAH 040453Z 00000KT 10SM SCT250 23/22 A2996 RMK AO2 SLP142 T02330217
 
KCXO - Conroe, Texas, USA
Distance from station: NNE 21mi, 34km
Updated: 07/03/2020 11:53pm
Clear
Clear
 Wind from calm
Wind: Calm
Temperature: 72°F , 22°C
Dew Point: 68°F , 20°C
Humidity: 88%
Barometer: 29.97 inHg , 1014.9 hPa
Clouds: Clear
Visibility: 10 miles , 16 km
2020/07/04 04:53 KCXO 040453Z AUTO 00000KT 10SM CLR 22/20 A2997 RMK AO2 SLP144 T02170200
KMCJ - Houston/Univ, Texas, USA
Distance from station: SSE 24mi, 39km
Updated: 07/03/2020 11:55pm
Overcast
Overcast
 Wind from SSE
Wind: SSE 6 mph , 9 km/h
Temperature: 77°F , 25°C
Dew Point: 72°F , 22°C
Humidity: 83%
Barometer: 29.94 inHg , 1013.9 hPa
Clouds: Overcast
Visibility: 10 miles , 16 km
Cloud details: Few Clouds 2700 ft
Mostly cloudy 3800 ft
Overcast 6000 ft
2020/07/04 04:55 KMCJ 040455Z AUTO 15005KT 10SM FEW027 BKN038 OVC060 25/22 A2994 RMK A01
 
KTME - Houston Exec, Texas, USA
Distance from station: SW 30mi, 48km
Updated: 07/03/2020 11:55pm

 Wind from SSE
Wind: SSE 3 mph , 6 km/h
Temperature: 77°F , 25°C
Dew Point: 72°F , 22°C
Humidity: 83%
Barometer: 29.96 inHg , 1014.6 hPa
Visibility: 10 miles , 16 km
2020/07/04 04:55 KTME 040455Z AUTO 15003KT 10SM 25/22 A2996 RMK AO2
KHOU - Houston/Hobby, Texas, USA
Distance from station: SSE 32mi, 51km
Updated: 07/03/2020 11:53pm
Mostly cloudy
Mostly cloudy
 Wind from ESE
Wind: ESE 3 mph , 6 km/h
Temperature: 81°F , 27°C
Heat Index: 85°F , 29°C
Dew Point: 72°F , 22°C
Humidity: 74%
Barometer: 29.94 inHg , 1013.9 hPa
Clouds: Mostly cloudy
Visibility: 10 miles , 16 km
Cloud details: Mostly cloudy 25000 ft
2020/07/04 04:53 KHOU 040453Z 12003KT 10SM BKN250 27/22 A2994 RMK AO2 SLP143 T02670217
 
KSGR - Houston/Sugar La, Texas, USA
Distance from station: SSW 32mi, 51km
Updated: 07/03/2020 11:53pm
Clear
Clear
 Wind from SE
Wind: SE 6 mph , 9 km/h
Temperature: 79°F , 26°C
Dew Point: 72°F , 22°C
Humidity: 79%
Barometer: 29.95 inHg , 1014.2 hPa
Clouds: Clear
Visibility: 10 miles , 16 km
2020/07/04 04:53 KSGR 040453Z AUTO 13005KT 10SM CLR 26/22 A2995 RMK AO2 SLP142 T02610222
K6R3 - Cleveland Muni, Texas, USA
Distance from station: NE 36mi, 58km
Updated: 07/03/2020 11:55pm
Clear
Clear
 Wind from calm
Wind: Calm
Temperature: 70°F , 21°C
Dew Point: 68°F , 20°C
Humidity: 94%
Barometer: 29.97 inHg , 1014.9 hPa
Clouds: Clear
Visibility: 7 miles , 11 km
2020/07/04 04:55 K6R3 040455Z AUTO 00000KT 7SM CLR 21/20 A2997 RMK AO2 T02100204
 
KAXH - Houston/Southwst, Texas, USA
Distance from station: S 37mi, 60km
Updated: 07/03/2020 11:55pm
Clear
Clear
 Wind from calm
Wind: Calm
Temperature: 73°F , 23°C
Dew Point: 72°F , 22°C
Humidity: 94%
Barometer: 29.96 inHg , 1014.6 hPa
Clouds: Clear
Visibility: 10 miles , 16 km
2020/07/04 04:55 KAXH 040455Z AUTO 00000KT 10SM CLR 23/22 A2996 RMK AO2 T02320224
KEFD - Houston/Ellingto, Texas, USA
Distance from station: SSE 37mi, 60km
Updated: 07/03/2020 11:50pm
Mostly cloudy
Mostly cloudy
 Wind from calm
Wind: Calm
Temperature: 77°F , 25°C
Dew Point: 72°F , 22°C
Humidity: 83%
Barometer: 29.94 inHg , 1013.9 hPa
Clouds: Mostly cloudy
Visibility: 10 miles , 16 km
Cloud details: Partly cloudy 4200 ft
Mostly cloudy 5500 ft
2020/07/04 04:50 KEFD 040450Z 00000KT 10SM SCT042 BKN055 25/22 A2994
 
KLVJ - Houston, Texas, USA
Distance from station: SSE 40mi, 64km
Updated: 07/03/2020 11:53pm
Clear
Clear
 Wind from calm
Wind: Calm
Temperature: 79°F , 26°C
Dew Point: 72°F , 22°C
Humidity: 79%
Barometer: 29.96 inHg , 1014.6 hPa
Clouds: Clear
Visibility: 10 miles , 16 km
2020/07/04 04:53 KLVJ 040453Z AUTO 00000KT 10SM CLR 26/22 A2996 RMK AO2 SLP145 T02610217
KUTS - Huntsville, Texas, USA
Distance from station: N 48mi, 78km
Updated: 07/03/2020 11:53pm
Clear
Clear
 Wind from S
Wind: S 3 mph , 6 km/h
Temperature: 75°F , 24°C
Dew Point: 66°F , 19°C
Humidity: 74%
Barometer: 29.96 inHg , 1014.6 hPa
Clouds: Clear
Visibility: 10 miles , 16 km
2020/07/04 04:53 KUTS 040453Z AUTO 18003KT 10SM CLR 24/19 A2996 RMK AO2 SLP139 T02390189